createdAt,value
2022-09-14T00:01:38.348Z,7.90
2022-09-14T00:04:12.041Z,8.20
2022-09-14T00:06:41.085Z,8.07
2022-09-14T00:09:11.391Z,8.50
2022-09-14T00:11:41.750Z,9.07
2022-09-14T00:14:09.834Z,8.50
2022-09-14T00:16:40.260Z,8.75
2022-09-14T00:19:18.054Z,8.98
2022-09-14T00:21:46.109Z,9.23
2022-09-14T00:24:14.493Z,8.50
2022-09-14T00:26:42.980Z,8.15
2022-09-14T00:29:12.208Z,8.65
2022-09-14T00:31:41.730Z,8.98
2022-09-14T00:34:15.604Z,8.70
2022-09-14T00:36:46.397Z,9.32
2022-09-14T00:39:15.532Z,9.27
2022-09-14T00:41:45.715Z,8.95
2022-09-14T00:44:51.806Z,9.35
2022-09-14T00:47:20.911Z,8.18
2022-09-14T00:49:50.311Z,8.15
2022-09-14T00:52:23.522Z,7.47
2022-09-14T00:54:54.547Z,7.80
2022-09-14T00:57:24.173Z,7.47
2022-09-14T00:59:53.646Z,7.07
2022-09-14T01:02:24.858Z,7.32
2022-09-14T01:04:54.473Z,7.10
2022-09-14T01:07:34.048Z,6.90
2022-09-14T01:10:08.504Z,6.32
2022-09-14T01:12:57.759Z,6.47
2022-09-14T01:15:36.505Z,5.93
2022-09-14T01:18:13.415Z,6.20
2022-09-14T01:20:48.724Z,5.00
2022-09-14T01:23:24.254Z,5.93
2022-09-14T01:26:14.462Z,4.82
2022-09-14T01:28:53.186Z,4.88
2022-09-14T01:31:28.408Z,4.68
2022-09-14T01:34:05.984Z,4.35
2022-09-14T01:36:38.212Z,4.60
2022-09-14T01:39:08.386Z,3.88
2022-09-14T01:41:38.062Z,3.88
2022-09-14T01:44:14.223Z,3.95
2022-09-14T01:46:46.334Z,4.07
2022-09-14T01:49:20.195Z,4.13
2022-09-14T01:51:53.157Z,3.83
2022-09-14T01:54:26.555Z,4.55
2022-09-14T01:56:58.121Z,3.65
2022-09-14T01:59:33.789Z,4.07
2022-09-14T02:02:05.902Z,4.18
2022-09-14T02:04:41.649Z,3.97
2022-09-14T02:07:09.943Z,4.20
2022-09-14T02:09:39.013Z,4.20
2022-09-14T02:12:08.200Z,3.50
2022-09-14T02:14:37.716Z,3.67
2022-09-14T02:17:08.836Z,3.88
2022-09-14T02:19:41.136Z,4.38
2022-09-14T02:22:09.654Z,4.45
2022-09-14T02:24:37.882Z,4.55
2022-09-14T02:27:07.415Z,3.97
2022-09-14T02:29:38.349Z,4.30
2022-09-14T02:32:16.472Z,3.63
2022-09-14T02:34:54.158Z,3.75
2022-09-14T02:37:29.137Z,4.32
2022-09-14T02:40:07.619Z,3.20
2022-09-14T02:42:42.523Z,4.22
2022-09-14T02:45:20.263Z,3.88
2022-09-14T02:48:04.876Z,3.08
2022-09-14T02:50:41.497Z,3.58
2022-09-14T02:53:16.289Z,4.60
2022-09-14T02:55:51.179Z,5.18
2022-09-14T02:58:19.111Z,4.80
2022-09-14T03:00:50.608Z,4.45
2022-09-14T03:03:21.758Z,4.05
2022-09-14T03:05:49.826Z,4.68
2022-09-14T03:08:18.315Z,5.22
2022-09-14T03:10:46.554Z,4.97
2022-09-14T03:13:14.600Z,4.53
2022-09-14T03:15:43.261Z,4.90
2022-09-14T03:18:14.662Z,4.45
2022-09-14T03:20:43.528Z,4.82
2022-09-14T03:23:12.329Z,5.53
2022-09-14T03:25:42.040Z,5.47
2022-09-14T03:28:11.922Z,6.35
2022-09-14T03:30:39.835Z,5.47
2022-09-14T03:33:08.421Z,5.85
2022-09-14T03:35:37.580Z,5.93
2022-09-14T03:38:05.948Z,6.13
2022-09-14T03:40:33.792Z,6.13
2022-09-14T03:43:02.177Z,5.72
2022-09-14T03:45:29.923Z,6.47
2022-09-14T03:47:57.953Z,6.10
2022-09-14T03:50:26.197Z,7.00
2022-09-14T03:52:56.138Z,7.05
2022-09-14T03:55:24.432Z,7.07
2022-09-14T03:57:54.844Z,6.32
2022-09-14T04:00:23.607Z,6.68
2022-09-14T04:02:51.483Z,7.07
2022-09-14T04:05:21.798Z,8.18
2022-09-14T04:07:50.355Z,8.30
2022-09-14T04:10:19.649Z,7.70
2022-09-14T04:12:47.449Z,8.48
2022-09-14T04:15:15.832Z,9.30
2022-09-14T04:17:43.768Z,8.55
2022-09-14T04:20:12.376Z,8.93
2022-09-14T04:22:40.068Z,8.20
2022-09-14T04:25:08.393Z,7.57
2022-09-14T04:27:37.918Z,8.38
2022-09-14T04:30:06.995Z,8.40
2022-09-14T04:32:35.355Z,8.18
2022-09-14T04:35:03.126Z,7.88
2022-09-14T04:37:32.682Z,8.27
2022-09-14T04:40:00.930Z,8.38
2022-09-14T04:42:28.715Z,8.57
2022-09-14T04:44:58.232Z,8.23
2022-09-14T04:47:26.473Z,8.45
2022-09-14T04:49:54.670Z,9.50
2022-09-14T04:52:23.397Z,8.88
2022-09-14T04:54:51.119Z,9.75
2022-09-14T04:57:19.793Z,8.82
2022-09-14T04:59:47.527Z,10.02
2022-09-14T05:02:17.322Z,10.15
2022-09-14T05:04:45.136Z,11.48
2022-09-14T05:07:13.137Z,13.23
2022-09-14T05:09:41.217Z,12.80
2022-09-14T05:12:09.215Z,12.40
2022-09-14T05:14:37.305Z,11.82
2022-09-14T05:17:05.248Z,12.48
2022-09-14T05:19:34.340Z,12.75
2022-09-14T05:22:02.580Z,12.07
2022-09-14T05:24:30.293Z,13.27
2022-09-14T05:27:01.097Z,13.32
2022-09-14T05:29:31.887Z,13.15
2022-09-14T05:32:00.070Z,13.98
2022-09-14T05:34:28.007Z,14.55
2022-09-14T05:36:57.104Z,12.60
2022-09-14T05:39:26.457Z,13.48
2022-09-14T05:41:54.213Z,12.57
2022-09-14T05:44:21.954Z,12.57
2022-09-14T05:46:50.284Z,12.50
2022-09-14T05:49:18.065Z,12.38
2022-09-14T05:51:45.834Z,11.80
2022-09-14T05:54:15.412Z,11.88
2022-09-14T05:56:43.176Z,9.73
2022-09-14T05:59:13.075Z,11.55
2022-09-14T06:01:41.106Z,10.77
2022-09-14T06:04:11.073Z,12.30
2022-09-14T06:06:39.260Z,11.48
2022-09-14T06:09:07.007Z,11.88
2022-09-14T06:11:37.359Z,12.57
2022-09-14T06:14:08.067Z,12.77
2022-09-14T06:16:36.022Z,11.00
2022-09-14T06:19:03.888Z,11.80
2022-09-14T06:21:35.423Z,12.43
2022-09-14T06:24:03.518Z,11.55
2022-09-14T06:26:31.318Z,12.60
2022-09-14T06:29:00.461Z,12.20
2022-09-14T06:31:28.298Z,13.07
2022-09-14T06:33:56.048Z,13.02
2022-09-14T06:36:25.626Z,12.50
2022-09-14T06:38:54.610Z,10.75
2022-09-14T06:41:26.404Z,12.38
2022-09-14T06:43:56.042Z,12.57
2022-09-14T06:46:27.308Z,12.43
2022-09-14T06:48:57.693Z,11.93
2022-09-14T06:51:29.254Z,13.43
2022-09-14T06:53:59.422Z,13.63
2022-09-14T06:56:27.901Z,13.52
2022-09-14T06:58:55.735Z,12.70
2022-09-14T07:01:25.938Z,13.15
2022-09-14T07:03:54.141Z,12.35
2022-09-14T07:06:24.013Z,13.75
2022-09-14T07:08:52.913Z,12.98
2022-09-14T07:11:26.585Z,13.50
2022-09-14T07:13:57.182Z,12.75
2022-09-14T07:16:27.282Z,13.15
2022-09-14T07:18:55.691Z,12.85
2022-09-14T07:21:23.793Z,14.35
2022-09-14T07:23:52.088Z,12.80
2022-09-14T07:26:22.011Z,13.55
2022-09-14T07:28:58.109Z,12.65
2022-09-14T07:31:28.449Z,12.98
2022-09-14T07:33:59.704Z,12.65
2022-09-14T07:36:33.977Z,13.15
2022-09-14T07:41:51.381Z,11.32
2022-09-14T07:47:10.086Z,11.82
2022-09-14T07:49:38.227Z,11.85
2022-09-14T07:52:06.042Z,11.48
2022-09-14T07:54:35.530Z,12.40
2022-09-14T07:57:03.642Z,10.65
2022-09-14T07:59:36.011Z,11.00
2022-09-14T08:02:07.347Z,10.93
2022-09-14T08:04:38.581Z,10.75
2022-09-14T08:07:06.731Z,10.38
2022-09-14T08:09:34.924Z,10.23
2022-09-14T08:12:03.179Z,9.82
2022-09-14T08:14:31.118Z,10.43
2022-09-14T08:16:59.900Z,10.95
2022-09-14T08:19:27.999Z,10.30
2022-09-14T08:21:57.295Z,11.38
2022-09-14T08:24:25.347Z,9.82
2022-09-14T08:26:54.134Z,10.50
2022-09-14T08:29:23.067Z,10.13
2022-09-14T08:31:52.020Z,10.48
2022-09-14T08:34:20.947Z,9.52
2022-09-14T08:36:49.161Z,9.95
2022-09-14T08:39:19.512Z,9.85
2022-09-14T08:41:54.127Z,9.95
2022-09-14T08:44:26.102Z,9.35
2022-09-14T08:47:00.362Z,9.95
2022-09-14T08:49:40.051Z,9.63
2022-09-14T08:52:13.917Z,8.88
2022-09-14T08:54:43.187Z,11.43
2022-09-14T08:57:17.313Z,11.60
2022-09-14T08:59:53.029Z,10.00
2022-09-14T09:02:35.804Z,12.48
2022-09-14T09:05:17.793Z,12.02
2022-09-14T09:07:55.545Z,13.75
2022-09-14T09:10:27.482Z,10.80
2022-09-14T09:12:58.829Z,11.73
2022-09-14T09:15:30.044Z,11.95
2022-09-14T09:18:02.377Z,12.00
2022-09-14T09:20:34.257Z,10.65
2022-09-14T09:23:09.340Z,9.60
2022-09-14T09:25:51.926Z,9.15
2022-09-14T09:28:21.121Z,8.60
2022-09-14T09:30:49.217Z,9.60
2022-09-14T09:33:23.029Z,8.88
2022-09-14T09:35:51.102Z,8.95
2022-09-14T09:38:24.769Z,9.60
2022-09-14T09:40:57.252Z,9.10
2022-09-14T09:43:45.679Z,8.38
2022-09-14T09:46:13.624Z,8.35
2022-09-14T09:48:44.390Z,9.07
2022-09-14T09:51:14.119Z,8.93
2022-09-14T09:53:49.777Z,8.63
2022-09-14T09:56:22.164Z,7.90
2022-09-14T09:58:52.568Z,8.75
2022-09-14T10:01:24.193Z,7.72
2022-09-14T10:04:04.920Z,8.43
2022-09-14T10:06:33.183Z,7.35
2022-09-14T10:09:00.992Z,7.82
2022-09-14T10:11:34.376Z,7.80
2022-09-14T10:14:02.493Z,7.78
2022-09-14T10:16:37.903Z,7.88
2022-09-14T10:22:03.565Z,7.53
2022-09-14T10:24:33.180Z,7.68
2022-09-14T10:27:02.833Z,15.55
2022-09-14T10:29:39.836Z,9.32
2022-09-14T10:32:20.336Z,7.82
2022-09-14T10:34:48.378Z,7.28
2022-09-14T10:37:32.146Z,7.00
2022-09-14T10:40:20.261Z,8.85
2022-09-14T10:43:04.595Z,8.77
2022-09-14T10:45:37.238Z,9.68
2022-09-14T10:48:31.989Z,10.95
2022-09-14T10:51:10.770Z,10.32
2022-09-14T10:53:50.228Z,10.18
2022-09-14T10:56:23.427Z,10.55
2022-09-14T10:59:15.527Z,10.20
2022-09-14T11:02:26.031Z,10.20
2022-09-14T11:05:06.516Z,11.52
2022-09-14T11:07:43.093Z,9.77
2022-09-14T11:10:22.777Z,10.07
2022-09-14T11:13:02.528Z,11.55
2022-09-14T11:15:42.369Z,11.75
2022-09-14T11:18:21.779Z,12.27
2022-09-14T11:21:02.175Z,13.25
2022-09-14T11:23:42.070Z,15.82
2022-09-14T11:26:15.800Z,14.68
2022-09-14T11:28:49.097Z,14.25
2022-09-14T11:31:23.620Z,14.25
2022-09-14T11:33:57.583Z,16.65
2022-09-14T11:36:29.563Z,15.65
2022-09-14T11:39:06.850Z,15.88
2022-09-14T11:41:40.620Z,17.67
2022-09-14T11:44:17.376Z,14.32
2022-09-14T11:46:50.859Z,15.68
2022-09-14T11:49:23.816Z,15.48
2022-09-14T11:51:57.034Z,17.25
2022-09-14T11:54:25.869Z,15.68
2022-09-14T11:56:58.407Z,17.40
2022-09-14T11:59:51.661Z,16.02
2022-09-14T12:02:59.216Z,15.30
2022-09-14T12:05:38.389Z,14.88
2022-09-14T12:08:41.599Z,15.95
2022-09-14T12:11:29.345Z,14.73
2022-09-14T12:14:27.579Z,14.27
2022-09-14T12:17:38.268Z,13.60
2022-09-14T12:20:43.267Z,14.00
2022-09-14T12:23:24.274Z,13.07
2022-09-14T12:26:00.290Z,13.70
2022-09-14T12:28:39.555Z,12.98
2022-09-14T12:31:12.867Z,14.65
2022-09-14T12:34:25.712Z,13.10
2022-09-14T12:37:29.638Z,12.20
2022-09-14T12:40:36.704Z,12.98
2022-09-14T12:43:50.634Z,13.43
2022-09-14T12:46:40.193Z,13.02
2022-09-14T12:49:31.047Z,13.63
2022-09-14T12:52:06.143Z,14.18
2022-09-14T12:54:52.846Z,14.40
2022-09-14T12:57:30.749Z,14.38
2022-09-14T13:00:07.230Z,16.55
2022-09-14T13:03:19.731Z,14.95
2022-09-14T13:05:47.881Z,15.18
2022-09-14T13:08:22.880Z,15.02
2022-09-14T13:10:53.857Z,14.52
2022-09-14T13:13:25.486Z,15.45
2022-09-14T13:15:56.989Z,15.73
2022-09-14T13:18:35.695Z,15.23
2022-09-14T13:21:18.357Z,15.25
2022-09-14T13:23:47.233Z,14.88
2022-09-14T13:26:20.224Z,14.43
2022-09-14T13:28:51.096Z,15.43
2022-09-14T13:31:23.590Z,15.10
2022-09-14T13:33:55.631Z,16.00
2022-09-14T13:36:26.885Z,15.85
2022-09-14T13:38:57.091Z,16.45
2022-09-14T13:41:25.412Z,17.40
2022-09-14T13:43:56.935Z,16.70
2022-09-14T13:46:27.732Z,16.38
2022-09-14T13:48:57.985Z,16.30
2022-09-14T13:51:29.727Z,14.90
2022-09-14T13:54:00.180Z,16.88
2022-09-14T13:56:32.395Z,16.73
2022-09-14T14:02:14.664Z,15.85
2022-09-14T14:04:49.877Z,17.20
2022-09-14T14:07:22.968Z,16.65
2022-09-14T14:09:53.449Z,16.70
2022-09-14T14:12:27.456Z,17.80
2022-09-14T14:14:57.552Z,18.95
2022-09-14T14:17:36.875Z,18.73
2022-09-14T14:20:30.982Z,20.17
2022-09-14T14:23:00.511Z,18.58
2022-09-14T14:25:35.127Z,16.85
2022-09-14T14:28:04.537Z,16.52
2022-09-14T14:30:34.917Z,15.50
2022-09-14T14:33:02.847Z,16.05
2022-09-14T14:35:32.732Z,15.90
2022-09-14T14:38:00.961Z,16.73
2022-09-14T14:40:29.097Z,18.08
2022-09-14T14:42:58.795Z,17.67
2022-09-14T14:45:28.430Z,18.40
2022-09-14T14:47:57.521Z,17.23
2022-09-14T14:50:27.077Z,17.77
2022-09-14T14:52:56.795Z,20.73
2022-09-14T14:55:27.408Z,19.63
2022-09-14T14:57:55.780Z,21.00
2022-09-14T15:00:25.684Z,19.52
2022-09-14T15:02:53.434Z,20.02
2022-09-14T15:05:21.690Z,17.27
2022-09-14T15:07:52.209Z,17.63
2022-09-14T15:10:23.090Z,16.20
2022-09-14T15:12:52.322Z,17.25
2022-09-14T15:15:23.695Z,17.08
2022-09-14T15:17:52.129Z,17.05
2022-09-14T15:20:20.552Z,17.77
2022-09-14T15:22:49.217Z,18.98
2022-09-14T15:25:19.313Z,18.52
2022-09-14T15:27:49.323Z,18.17
2022-09-14T15:30:17.762Z,15.60
2022-09-14T15:32:45.499Z,14.68
2022-09-14T15:35:15.783Z,14.68
2022-09-14T15:37:44.098Z,13.50
2022-09-14T15:40:12.328Z,13.63
2022-09-14T15:42:40.354Z,13.55
2022-09-14T15:45:11.209Z,13.75
2022-09-14T15:47:38.966Z,13.70
2022-09-14T15:50:08.387Z,12.57
2022-09-14T15:52:37.187Z,13.15
2022-09-14T15:55:05.577Z,13.15
2022-09-14T15:57:33.810Z,11.90
2022-09-14T16:00:01.876Z,11.23
2022-09-14T16:02:31.013Z,11.13
2022-09-14T16:04:58.818Z,11.80
2022-09-14T16:07:28.094Z,10.27
2022-09-14T16:09:58.806Z,12.10
2022-09-14T16:12:27.378Z,10.70
2022-09-14T16:14:55.818Z,11.65
2022-09-14T16:17:23.758Z,11.95
2022-09-14T16:19:53.066Z,12.20
2022-09-14T16:22:21.905Z,13.90
2022-09-14T16:24:49.985Z,22.50
2022-09-14T16:27:18.209Z,13.63
2022-09-14T16:29:45.976Z,12.57
2022-09-14T16:32:13.784Z,12.75
2022-09-14T16:34:41.829Z,13.95
2022-09-14T16:37:11.176Z,14.13
2022-09-14T16:39:38.925Z,13.13
2022-09-14T16:42:07.627Z,13.88
2022-09-14T16:44:35.588Z,14.50
2022-09-14T16:47:03.402Z,16.75
2022-09-14T16:49:31.470Z,15.52
2022-09-14T16:52:00.720Z,15.38
2022-09-14T16:54:31.854Z,16.30
2022-09-14T16:57:01.198Z,17.30
2022-09-14T16:59:29.045Z,16.90
2022-09-14T17:01:57.137Z,15.85
2022-09-14T17:04:26.348Z,17.65
2022-09-14T17:06:56.044Z,22.00
2022-09-14T17:09:26.642Z,20.58
2022-09-14T17:11:57.543Z,21.52
2022-09-14T17:14:27.105Z,20.70
2022-09-14T17:16:55.029Z,20.52
2022-09-14T17:19:23.214Z,21.65
2022-09-14T17:21:51.297Z,20.55
2022-09-14T17:24:20.493Z,19.50
2022-09-14T17:26:48.429Z,20.95
2022-09-14T17:29:17.825Z,19.38
2022-09-14T17:31:46.596Z,17.75
2022-09-14T17:34:16.977Z,16.55
2022-09-14T17:36:45.475Z,15.98
2022-09-14T17:39:14.232Z,14.80
2022-09-14T17:41:44.119Z,14.88
2022-09-14T17:44:13.658Z,15.27
2022-09-14T17:46:53.041Z,14.32
2022-09-14T17:49:22.111Z,13.13
2022-09-14T17:51:50.184Z,12.90
2022-09-14T17:54:18.764Z,12.50
2022-09-14T17:56:46.700Z,13.57
2022-09-14T17:59:17.516Z,14.27
2022-09-14T18:01:46.653Z,13.15
2022-09-14T18:04:15.982Z,13.55
2022-09-14T18:06:46.040Z,14.13
2022-09-14T18:09:16.343Z,12.88
2022-09-14T18:11:44.644Z,14.05
2022-09-14T18:14:14.132Z,15.05
2022-09-14T18:16:42.817Z,14.35
2022-09-14T18:19:12.229Z,15.43
2022-09-14T18:21:40.103Z,15.50
2022-09-14T18:24:08.278Z,15.52
2022-09-14T18:26:36.831Z,18.05
2022-09-14T18:29:04.569Z,17.35
2022-09-14T18:31:32.409Z,15.93
2022-09-14T18:34:01.590Z,18.65
2022-09-14T18:36:31.819Z,17.73
2022-09-14T18:38:59.960Z,19.02
2022-09-14T18:41:29.100Z,18.38
2022-09-14T18:43:56.995Z,18.77
2022-09-14T18:46:28.092Z,18.23
2022-09-14T18:48:57.899Z,20.20
2022-09-14T18:51:26.332Z,18.75
2022-09-14T18:53:58.989Z,18.35
2022-09-14T18:56:28.017Z,19.95
2022-09-14T18:58:55.913Z,20.65
2022-09-14T19:01:23.791Z,21.85
2022-09-14T19:03:52.117Z,19.67
2022-09-14T19:06:21.941Z,19.25
2022-09-14T19:08:50.883Z,20.17
2022-09-14T19:11:21.980Z,21.17
2022-09-14T19:13:55.442Z,20.20
2022-09-14T19:16:23.295Z,21.42
2022-09-14T19:18:51.122Z,25.20
2022-09-14T19:21:23.696Z,21.70
2022-09-14T19:23:57.349Z,21.33
2022-09-14T19:26:28.258Z,20.58
2022-09-14T19:28:56.259Z,20.85
2022-09-14T19:31:24.456Z,20.33
2022-09-14T19:33:52.524Z,22.02
2022-09-14T19:36:22.072Z,21.17
2022-09-14T19:38:51.589Z,20.75
2022-09-14T19:41:20.569Z,20.63
2022-09-14T19:43:50.062Z,20.10
2022-09-14T19:46:20.042Z,20.63
2022-09-14T19:48:48.323Z,20.45
2022-09-14T19:51:17.919Z,21.27
2022-09-14T19:53:48.398Z,20.63
2022-09-14T19:56:18.636Z,20.77
2022-09-14T19:58:51.434Z,21.23
2022-09-14T20:01:21.315Z,21.05
2022-09-14T20:03:50.490Z,21.35
2022-09-14T20:06:22.596Z,20.08
2022-09-14T20:08:53.015Z,20.10
2022-09-14T20:11:24.404Z,21.50
2022-09-14T20:13:54.608Z,18.85
2022-09-14T20:16:25.525Z,20.65
2022-09-14T20:18:53.532Z,19.33
2022-09-14T20:21:23.440Z,21.20
2022-09-14T20:24:14.790Z,19.67
2022-09-14T20:26:43.919Z,22.35
2022-09-14T20:29:13.073Z,21.50
2022-09-14T20:31:41.025Z,20.92
2022-09-14T20:34:09.128Z,21.02
2022-09-14T20:36:36.932Z,20.55
2022-09-14T20:39:05.308Z,21.67
2022-09-14T20:41:35.019Z,19.50
2022-09-14T20:44:03.575Z,20.23
2022-09-14T20:46:35.916Z,20.77
2022-09-14T20:49:05.442Z,20.15
2022-09-14T20:51:33.608Z,19.08
2022-09-14T20:54:01.461Z,19.50
2022-09-14T20:56:31.366Z,20.33
2022-09-14T20:59:00.608Z,19.42
2022-09-14T21:01:31.076Z,20.85
2022-09-14T21:04:05.035Z,19.58
2022-09-14T21:06:34.272Z,19.88
2022-09-14T21:09:02.357Z,19.92
2022-09-14T21:11:31.258Z,20.90
2022-09-14T21:13:59.762Z,20.55
2022-09-14T21:16:29.367Z,21.13
2022-09-14T21:19:00.177Z,22.27
2022-09-14T21:21:30.432Z,24.33
2022-09-14T21:23:59.686Z,23.05
2022-09-14T21:26:30.182Z,23.67
2022-09-14T21:28:59.640Z,24.52
2022-09-14T21:31:28.692Z,23.58
2022-09-14T21:33:59.077Z,25.20
2022-09-14T21:36:30.145Z,23.25
2022-09-14T21:38:59.718Z,26.67
2022-09-14T21:41:29.974Z,26.67
2022-09-14T21:43:58.218Z,25.50
2022-09-14T21:46:26.769Z,26.33
2022-09-14T21:48:55.908Z,27.33
2022-09-14T21:51:26.264Z,24.83
2022-09-14T21:53:58.361Z,26.00
2022-09-14T21:56:28.154Z,26.88
2022-09-14T21:58:58.710Z,26.58
2022-09-14T22:01:26.919Z,26.08
2022-09-14T22:03:56.087Z,24.65
2022-09-14T22:06:27.327Z,25.15
2022-09-14T22:08:57.543Z,24.92
2022-09-14T22:11:27.125Z,25.10
2022-09-14T22:13:55.956Z,25.27
2022-09-14T22:16:26.006Z,25.85
2022-09-14T22:18:56.317Z,24.48
2022-09-14T22:21:27.111Z,23.45
2022-09-14T22:23:58.513Z,21.55
2022-09-14T22:26:29.003Z,24.65
2022-09-14T22:28:58.840Z,25.27
2022-09-14T22:31:28.632Z,23.52
2022-09-14T22:33:58.189Z,23.48
2022-09-14T22:36:26.861Z,23.58
2022-09-14T22:38:59.139Z,20.10
2022-09-14T22:41:28.871Z,21.42
2022-09-14T22:43:57.645Z,22.55
2022-09-14T22:46:26.194Z,21.05
2022-09-14T22:48:54.276Z,20.15
2022-09-14T22:51:24.785Z,19.20
2022-09-14T22:53:53.730Z,21.02
2022-09-14T22:56:25.146Z,19.38
2022-09-14T22:58:53.580Z,20.25
2022-09-14T23:01:24.003Z,18.67
2022-09-14T23:03:56.380Z,20.35
2022-09-14T23:06:27.940Z,19.13
2022-09-14T23:08:56.158Z,18.88
2022-09-14T23:11:25.500Z,18.02
2022-09-14T23:13:53.452Z,19.50
2022-09-14T23:16:26.483Z,20.13
2022-09-14T23:18:55.795Z,20.85
2022-09-14T23:21:25.072Z,19.30
2022-09-14T23:23:53.578Z,19.15
2022-09-14T23:26:22.232Z,19.50
2022-09-14T23:28:56.083Z,18.25
2022-09-14T23:31:24.677Z,18.33
2022-09-14T23:33:53.775Z,18.48
2022-09-14T23:36:23.112Z,18.48
2022-09-14T23:38:51.486Z,19.77
2022-09-14T23:41:23.738Z,17.80
2022-09-14T23:43:51.915Z,18.52
2022-09-14T23:46:22.093Z,18.35
2022-09-14T23:48:50.594Z,18.95
2022-09-14T23:51:18.368Z,18.52
2022-09-14T23:53:46.964Z,17.88
2022-09-14T23:56:15.446Z,18.23
2022-09-14T23:58:43.676Z,17.23
